Prospector, Canada
Current Conditions -  °F | °C
As of 4:00 AM on Monday 26 Jan 2015 (Local Time) from CYQD Reporting Station
Few Clouds Few Clouds  
Wind Chill: -17°   Ceiling: Unl
Heat Index: -10°   Visibility: 15mi
Dew Point: -12°   Wind: 10mph
Humidity: 86%   Direction: 320°NW
Pressure: 29.74"   Gusts: NA
Location:  52.95°N, 101.27°W
Report Text: CYQD 261000Z 32009KT 15SM FEW070 M10/M12 A2974 RMK AS2 PRESRR SLP093
Loading
Personal Weather Stations






























Interactive Weather Map New forecast layout! Learn more

10-Day Weather Forecast

Advertisements
Track Severe Weather on mobile